createdAt,value
2018-05-08T00:00:52.962Z,0
2018-05-08T00:02:02.973Z,0
2018-05-08T00:03:12.747Z,0
2018-05-08T00:04:22.771Z,0
2018-05-08T00:05:32.538Z,0
2018-05-08T00:06:42.539Z,0
2018-05-08T00:07:52.538Z,0
2018-05-08T00:09:02.388Z,0
2018-05-08T00:10:12.396Z,0
2018-05-08T00:11:22.141Z,0
2018-05-08T00:12:32.167Z,0
2018-05-08T00:13:42.255Z,0
2018-05-08T00:14:52.006Z,0
2018-05-08T00:16:02.066Z,0
2018-05-08T00:17:12.094Z,0
2018-05-08T00:18:22.106Z,0
2018-05-08T00:19:32.148Z,0
2018-05-08T00:20:41.901Z,0
2018-05-08T00:21:51.962Z,0
2018-05-08T00:23:01.958Z,0
2018-05-08T00:24:11.736Z,0
2018-05-08T00:25:21.494Z,0
2018-05-08T00:26:31.245Z,0
2018-05-08T00:27:41.262Z,0
2018-05-08T00:28:51.262Z,0
2018-05-08T00:30:01.372Z,0
2018-05-08T00:31:11.380Z,0
2018-05-08T00:32:21.382Z,0
2018-05-08T00:33:31.187Z,0
2018-05-08T00:34:41.203Z,0
2018-05-08T00:35:51.222Z,0
2018-05-08T00:37:01.237Z,0
2018-05-08T00:38:10.973Z,0
2018-05-08T00:39:20.987Z,0
2018-05-08T00:40:31.001Z,0
2018-05-08T00:41:41.017Z,0
2018-05-08T00:42:51.045Z,0
2018-05-08T00:44:01.075Z,0
2018-05-08T00:45:11.106Z,0
2018-05-08T00:46:20.873Z,0
2018-05-08T00:47:30.913Z,0
2018-05-08T00:48:40.914Z,0
2018-05-08T00:49:50.688Z,0
2018-05-08T00:51:00.431Z,0
2018-05-08T00:52:10.431Z,0
2018-05-08T00:53:20.430Z,0
2018-05-08T00:54:30.453Z,0
2018-05-08T00:55:40.470Z,0
2018-05-08T00:56:50.518Z,0
2018-05-08T00:58:00.551Z,0
2018-05-08T00:59:10.560Z,0
2018-05-08T01:00:20.568Z,0
2018-05-08T01:01:30.605Z,0
2018-05-08T01:02:40.366Z,0
2018-05-08T01:03:50.418Z,0
2018-05-08T01:05:00.747Z,0
2018-05-08T01:06:10.503Z,0
2018-05-08T01:07:20.516Z,0
2018-05-08T01:08:30.527Z,0
2018-05-08T01:09:40.563Z,0
2018-05-08T01:10:50.571Z,0
2018-05-08T01:12:00.326Z,0
2018-05-08T01:13:10.086Z,0
2018-05-08T01:14:20.110Z,0
2018-05-08T01:15:29.611Z,0
2018-05-08T01:16:39.384Z,0
2018-05-08T01:17:49.398Z,0
2018-05-08T01:18:59.247Z,0
2018-05-08T01:20:09.270Z,0
2018-05-08T01:21:19.287Z,0
2018-05-08T01:22:29.293Z,0
2018-05-08T01:23:38.772Z,0
2018-05-08T01:24:48.798Z,0
2018-05-08T01:25:58.611Z,0
2018-05-08T01:27:08.699Z,0
2018-05-08T01:28:18.777Z,0
2018-05-08T01:29:28.858Z,0
2018-05-08T01:30:38.937Z,0
2018-05-08T01:31:49.287Z,0
2018-05-08T01:32:59.368Z,0
2018-05-08T01:34:09.428Z,0
2018-05-08T01:35:19.304Z,0
2018-05-08T01:36:29.119Z,0
2018-05-08T01:37:38.930Z,0
2018-05-08T01:38:48.755Z,0
2018-05-08T01:39:58.850Z,0
2018-05-08T01:41:08.924Z,0
2018-05-08T01:42:19.003Z,0
2018-05-08T01:43:29.338Z,0
2018-05-08T01:44:39.500Z,0
2018-05-08T01:45:49.343Z,0
2018-05-08T01:46:59.433Z,0
2018-05-08T01:48:09.496Z,0
2018-05-08T01:49:19.570Z,0
2018-05-08T01:50:29.123Z,0
2018-05-08T01:51:38.952Z,0
2018-05-08T01:52:49.035Z,0
2018-05-08T01:53:58.843Z,0
2018-05-08T01:55:08.671Z,0
2018-05-08T01:56:18.747Z,0
2018-05-08T01:57:28.813Z,0
2018-05-08T01:58:38.886Z,0
2018-05-08T01:59:48.964Z,0
2018-05-08T02:00:59.031Z,0
2018-05-08T02:02:09.107Z,0
2018-05-08T02:03:19.187Z,0
2018-05-08T02:04:29.246Z,0
2018-05-08T02:05:39.356Z,0
2018-05-08T02:06:49.476Z,0
2018-05-08T02:07:59.294Z,0
2018-05-08T02:09:09.383Z,0
2018-05-08T02:10:19.460Z,0
2018-05-08T02:11:29.554Z,0
2018-05-08T02:12:39.633Z,0
2018-05-08T02:13:49.732Z,0
2018-05-08T02:14:59.558Z,0
2018-05-08T02:16:09.632Z,0
2018-05-08T02:17:19.719Z,0
2018-05-08T02:18:29.005Z,0
2018-05-08T02:19:39.102Z,0
2018-05-08T02:20:48.915Z,0
2018-05-08T02:21:58.994Z,0
2018-05-08T02:23:09.059Z,0
2018-05-08T02:24:19.133Z,0
2018-05-08T02:25:29.221Z,0
2018-05-08T02:26:39.289Z,0
2018-05-08T02:27:49.367Z,0
2018-05-08T02:28:59.436Z,0
2018-05-08T02:30:09.402Z,0
2018-05-08T02:31:19.506Z,0
2018-05-08T02:32:29.610Z,0
2018-05-08T02:33:39.433Z,0
2018-05-08T02:34:49.243Z,0
2018-05-08T02:35:59.363Z,0
2018-05-08T02:37:09.437Z,0
2018-05-08T02:38:19.249Z,0
2018-05-08T02:39:29.342Z,0
2018-05-08T02:40:38.635Z,0
2018-05-08T02:41:48.724Z,0
2018-05-08T02:42:58.281Z,0
2018-05-08T02:44:08.095Z,0
2018-05-08T02:45:18.191Z,0
2018-05-08T02:46:28.321Z,0
2018-05-08T02:47:38.382Z,0
2018-05-08T02:48:48.481Z,0
2018-05-08T02:49:58.570Z,0
2018-05-08T02:51:08.388Z,0
2018-05-08T02:52:18.508Z,0
2018-05-08T02:53:28.597Z,0
2018-05-08T02:54:38.683Z,0
2018-05-08T02:55:48.507Z,0
2018-05-08T02:56:58.363Z,0
2018-05-08T02:58:08.438Z,0
2018-05-08T02:59:18.253Z,0
2018-05-08T03:00:28.336Z,0
2018-05-08T03:01:38.394Z,0
2018-05-08T03:34:12.425Z,10
2018-05-08T03:35:22.488Z,10
2018-05-08T03:36:32.035Z,10
2018-05-08T03:37:41.834Z,10
2018-05-08T03:38:51.908Z,15
2018-05-08T03:40:02.037Z,15
2018-05-08T03:41:12.139Z,15
2018-05-08T03:42:22.222Z,15
2018-05-08T03:43:32.280Z,20
2018-05-08T03:44:42.341Z,20
2018-05-08T03:45:52.439Z,20
2018-05-08T03:47:02.524Z,20
2018-05-08T03:48:12.632Z,25
2018-05-08T03:49:22.747Z,25
2018-05-08T03:50:32.555Z,25
2018-05-08T03:51:42.388Z,25
2018-05-08T03:52:52.196Z,30
2018-05-08T03:54:02.016Z,30
2018-05-08T03:55:12.084Z,30
2018-05-08T03:56:22.159Z,35
2018-05-08T03:57:32.636Z,35
2018-05-08T03:58:42.457Z,35
2018-05-08T03:59:52.525Z,35
2018-05-08T04:01:02.594Z,40
2018-05-08T04:02:12.672Z,40
2018-05-08T04:03:22.805Z,40
2018-05-08T04:04:32.681Z,40
2018-05-08T04:05:42.227Z,45
2018-05-08T04:06:52.053Z,45
2018-05-08T04:08:01.861Z,45
2018-05-08T04:09:11.662Z,50
2018-05-08T04:10:21.211Z,50
2018-05-08T04:11:31.012Z,50
2018-05-08T04:12:40.814Z,50
2018-05-08T04:13:50.889Z,50
2018-05-08T04:15:00.779Z,50
2018-05-08T04:16:10.852Z,55
2018-05-08T04:17:20.940Z,55
2018-05-08T04:18:31.022Z,55
2018-05-08T04:19:40.589Z,95
2018-05-08T04:20:50.143Z,210
2018-05-08T04:22:00.233Z,295
2018-05-08T04:23:10.293Z,260
2018-05-08T04:24:20.126Z,250
2018-05-08T04:25:30.188Z,205
2018-05-08T04:26:40.333Z,120
2018-05-08T04:27:50.152Z,70
2018-05-08T04:28:59.969Z,80
2018-05-08T04:30:10.063Z,75
2018-05-08T04:31:20.138Z,75
2018-05-08T04:32:29.990Z,95
2018-05-08T04:33:39.635Z,105
2018-05-08T04:34:49.448Z,105
2018-05-08T04:35:59.527Z,130
2018-05-08T04:37:09.589Z,190
2018-05-08T04:38:19.401Z,270
2018-05-08T04:39:29.215Z,270
2018-05-08T04:40:39.306Z,195
2018-05-08T04:41:49.388Z,325
2018-05-08T04:42:59.464Z,340
2018-05-08T04:44:09.548Z,390
2018-05-08T04:45:19.630Z,420
2018-05-08T04:46:29.528Z,415
2018-05-08T04:47:39.723Z,430
2018-05-08T04:48:49.793Z,455
2018-05-08T04:49:59.879Z,425
2018-05-08T04:51:09.952Z,420
2018-05-08T04:52:19.786Z,405
2018-05-08T04:53:29.874Z,400
2018-05-08T04:54:39.690Z,405
2018-05-08T04:55:49.946Z,415
2018-05-08T04:56:59.788Z,420
2018-05-08T04:58:09.869Z,410
2018-05-08T04:59:19.975Z,425
2018-05-08T05:00:29.786Z,440
2018-05-08T05:01:39.883Z,445
2018-05-08T05:02:50.463Z,430
2018-05-08T05:04:00.545Z,435
2018-05-08T05:05:10.365Z,455
2018-05-08T05:06:20.444Z,445
2018-05-08T05:07:30.509Z,420
2018-05-08T05:08:40.588Z,425
2018-05-08T05:09:50.668Z,415
2018-05-08T05:11:00.544Z,420
2018-05-08T05:12:10.412Z,430
2018-05-08T05:13:20.222Z,390
2018-05-08T05:14:30.315Z,385
2018-05-08T05:15:40.387Z,390
2018-05-08T05:16:50.808Z,400
2018-05-08T05:18:00.625Z,405
2018-05-08T05:19:10.557Z,395
2018-05-08T05:20:20.372Z,400
2018-05-08T05:21:30.444Z,390
2018-05-08T05:22:40.261Z,385
2018-05-08T05:23:50.350Z,195
2018-05-08T05:24:59.650Z,175
2018-05-08T05:26:09.465Z,105
2018-05-08T05:27:19.554Z,120
2018-05-08T05:28:29.633Z,160
2018-05-08T05:29:39.449Z,205
2018-05-08T05:30:49.543Z,360
2018-05-08T05:31:59.642Z,360
2018-05-08T05:33:09.460Z,365
2018-05-08T05:34:19.299Z,355
2018-05-08T05:35:29.122Z,210
2018-05-08T05:36:39.209Z,145
2018-05-08T05:37:49.280Z,160
2018-05-08T05:38:59.101Z,140
2018-05-08T05:40:09.164Z,140
2018-05-08T05:41:18.733Z,145
2018-05-08T05:42:28.862Z,145
2018-05-08T05:43:38.944Z,185
2018-05-08T05:44:48.784Z,175
2018-05-08T05:45:58.876Z,200
2018-05-08T05:47:08.962Z,185
2018-05-08T05:48:19.054Z,190
2018-05-08T05:49:29.142Z,305
2018-05-08T05:50:38.959Z,155
2018-05-08T05:51:49.037Z,140
2018-05-08T05:52:58.847Z,160
2018-05-08T05:54:08.726Z,140
2018-05-08T05:55:18.529Z,260
2018-05-08T05:56:28.616Z,195
2018-05-08T05:57:38.722Z,150
2018-05-08T05:58:48.528Z,145
2018-05-08T05:59:58.646Z,145
2018-05-08T06:01:08.745Z,145
2018-05-08T06:02:18.836Z,145
2018-05-08T06:03:28.929Z,140
2018-05-08T06:04:39.028Z,145
2018-05-08T06:05:49.106Z,145
2018-05-08T06:06:59.186Z,145
2018-05-08T06:08:09.280Z,160
2018-05-08T06:09:19.367Z,190
2018-05-08T06:10:29.454Z,195
2018-05-08T06:11:39.528Z,185
2018-05-08T06:12:49.627Z,175
2018-05-08T06:13:59.715Z,155
2018-05-08T06:15:09.805Z,170
2018-05-08T06:16:19.893Z,170
2018-05-08T06:17:29.796Z,165
2018-05-08T06:18:39.884Z,165
2018-05-08T06:19:49.446Z,165
2018-05-08T06:20:59.254Z,165
2018-05-08T06:22:09.330Z,165
2018-05-08T06:23:19.470Z,165
2018-05-08T06:24:29.302Z,165
2018-05-08T06:25:39.389Z,160
2018-05-08T06:26:49.518Z,160
2018-05-08T06:27:59.594Z,160
2018-05-08T06:29:09.463Z,145
2018-05-08T06:30:19.542Z,145
2018-05-08T06:31:29.613Z,150
2018-05-08T06:32:39.711Z,155
2018-05-08T06:33:49.527Z,155
2018-05-08T06:34:59.355Z,155
2018-05-08T06:36:09.174Z,155
2018-05-08T06:37:19.253Z,155
2018-05-08T06:38:29.075Z,155
2018-05-08T06:39:38.808Z,155
2018-05-08T06:40:48.949Z,160
2018-05-08T06:41:58.754Z,165
2018-05-08T06:43:08.863Z,170
2018-05-08T06:44:18.497Z,170
2018-05-08T06:45:28.329Z,165
2018-05-08T06:46:38.331Z,160
2018-05-08T06:47:48.398Z,165
2018-05-08T06:48:58.489Z,165
2018-05-08T06:50:08.332Z,150
2018-05-08T06:51:18.424Z,140
2018-05-08T06:52:28.499Z,135
2018-05-08T06:53:38.586Z,150
2018-05-08T06:54:48.737Z,135
2018-05-08T06:55:58.306Z,140
2018-05-08T06:57:08.387Z,140
2018-05-08T06:58:18.587Z,160
2018-05-08T06:59:28.658Z,190
2018-05-08T07:00:38.749Z,190
2018-05-08T07:01:48.915Z,195
2018-05-08T07:02:58.990Z,165
2018-05-08T07:04:09.097Z,165
2018-05-08T07:05:19.186Z,160
2018-05-08T07:06:29.266Z,165
2018-05-08T07:07:39.078Z,175
2018-05-08T07:08:49.166Z,185
2018-05-08T07:09:59.245Z,185
2018-05-08T07:11:09.079Z,195
2018-05-08T07:12:19.161Z,200
2018-05-08T07:13:29.239Z,180
2018-05-08T07:14:39.064Z,190
2018-05-08T07:15:49.758Z,230
2018-05-08T07:17:00.034Z,235
2018-05-08T07:18:10.219Z,185
2018-05-08T07:19:20.041Z,190
2018-05-08T07:20:30.121Z,195
2018-05-08T07:21:39.956Z,190
2018-05-08T07:22:49.775Z,205
2018-05-08T07:24:00.065Z,205
2018-05-08T07:25:09.899Z,225
2018-05-08T07:26:19.991Z,235
2018-05-08T07:27:29.293Z,250
2018-05-08T07:28:39.099Z,280
2018-05-08T07:29:48.942Z,310
2018-05-08T07:30:59.149Z,315
2018-05-08T07:32:09.249Z,285
2018-05-08T07:33:19.355Z,280
2018-05-08T07:34:29.455Z,260
2018-05-08T07:35:39.295Z,250
2018-05-08T07:36:49.377Z,240
2018-05-08T07:37:59.192Z,235
2018-05-08T07:39:08.741Z,235
2018-05-08T07:40:18.551Z,235
2018-05-08T07:41:28.623Z,275
2018-05-08T07:42:38.711Z,275
2018-05-08T07:43:48.542Z,245
2018-05-08T07:44:58.637Z,255
2018-05-08T07:46:08.715Z,230
2018-05-08T07:47:18.803Z,235
2018-05-08T07:48:28.900Z,240
2018-05-08T07:49:38.735Z,255
2018-05-08T07:50:48.928Z,245
2018-05-08T07:51:59.279Z,230
2018-05-08T07:53:09.108Z,215
2018-05-08T07:54:19.202Z,205
2018-05-08T07:55:29.298Z,205
2018-05-08T07:56:39.380Z,205
2018-05-08T07:57:49.720Z,205
2018-05-08T07:58:59.827Z,215
2018-05-08T08:00:09.658Z,220
2018-05-08T08:01:19.500Z,225
2018-05-08T08:02:29.595Z,215
2018-05-08T08:03:39.727Z,210
2018-05-08T08:04:49.818Z,240
2018-05-08T08:05:59.910Z,210
2018-05-08T08:07:10.009Z,205
2018-05-08T08:08:19.583Z,195
2018-05-08T08:09:29.702Z,255
2018-05-08T08:10:39.775Z,205
2018-05-08T08:11:49.964Z,210
2018-05-08T08:13:00.048Z,250
2018-05-08T08:14:10.216Z,205
2018-05-08T08:15:20.292Z,210
2018-05-08T08:16:30.110Z,215
2018-05-08T08:17:40.212Z,225
2018-05-08T08:18:50.281Z,230
2018-05-08T08:20:00.417Z,225
2018-05-08T08:21:10.480Z,220
2018-05-08T08:22:20.314Z,220
2018-05-08T08:23:30.406Z,215
2018-05-08T08:24:40.534Z,210
2018-05-08T08:25:50.358Z,210
2018-05-08T08:27:00.440Z,200
2018-05-08T08:28:10.538Z,185
2018-05-08T08:29:20.624Z,170
2018-05-08T08:30:30.728Z,165
2018-05-08T08:31:40.551Z,165
2018-05-08T08:32:50.688Z,170
2018-05-08T08:34:00.855Z,175
2018-05-08T08:35:10.696Z,175
2018-05-08T08:36:20.798Z,170
2018-05-08T08:37:30.403Z,165
2018-05-08T08:38:40.594Z,170
2018-05-08T08:39:50.750Z,165
2018-05-08T08:41:00.948Z,165
2018-05-08T08:42:10.788Z,170
2018-05-08T08:43:20.933Z,175
2018-05-08T08:44:30.771Z,170
2018-05-08T08:45:40.850Z,175
2018-05-08T08:46:50.934Z,170
2018-05-08T08:48:01.332Z,165
2018-05-08T08:49:11.179Z,155
2018-05-08T08:50:21.310Z,145
2018-05-08T08:51:31.412Z,140
2018-05-08T08:52:41.670Z,140
2018-05-08T08:53:51.760Z,140
2018-05-08T08:55:01.596Z,150
2018-05-08T08:56:11.434Z,165
2018-05-08T08:57:21.267Z,160
2018-05-08T08:58:31.083Z,165
2018-05-08T08:59:40.907Z,165
2018-05-08T09:00:50.528Z,160
2018-05-08T09:02:00.625Z,160
2018-05-08T09:03:10.705Z,160
2018-05-08T09:04:20.813Z,165
2018-05-08T09:05:30.910Z,170
2018-05-08T09:06:41.006Z,170
2018-05-08T09:07:51.096Z,175
2018-05-08T09:09:01.177Z,185
2018-05-08T09:10:11.321Z,190
2018-05-08T09:11:21.289Z,195
2018-05-08T09:12:31.489Z,200
2018-05-08T09:13:41.614Z,195
2018-05-08T09:14:51.468Z,195
2018-05-08T09:16:01.039Z,190
2018-05-08T09:17:11.133Z,185
2018-05-08T09:18:21.223Z,185
2018-05-08T09:19:31.294Z,180
2018-05-08T09:20:41.489Z,180
2018-05-08T09:21:51.571Z,180
2018-05-08T09:23:01.672Z,180
2018-05-08T09:24:11.776Z,180
2018-05-08T09:25:21.592Z,185
2018-05-08T09:26:31.766Z,190
2018-05-08T09:27:42.317Z,195
2018-05-08T09:28:52.151Z,205
2018-05-08T09:30:01.714Z,210
2018-05-08T09:31:11.816Z,215
2018-05-08T09:32:21.903Z,215
2018-05-08T09:33:31.724Z,220
2018-05-08T09:34:41.557Z,225
2018-05-08T09:35:51.688Z,235
2018-05-08T09:37:01.799Z,245
2018-05-08T09:38:11.409Z,270
2018-05-08T09:39:21.493Z,245
2018-05-08T09:40:31.595Z,250
2018-05-08T09:41:41.425Z,250
2018-05-08T09:42:51.516Z,260
2018-05-08T09:44:01.678Z,295
2018-05-08T09:45:11.792Z,330
2018-05-08T09:46:21.374Z,260
2018-05-08T09:47:31.209Z,255
2018-05-08T09:48:41.034Z,280
2018-05-08T09:49:51.114Z,200
2018-05-08T09:51:01.209Z,225
2018-05-08T09:52:11.299Z,220
2018-05-08T09:53:21.420Z,215
2018-05-08T09:54:31.541Z,210
2018-05-08T09:55:41.365Z,205
2018-05-08T09:56:51.214Z,205
2018-05-08T09:58:01.056Z,205
2018-05-08T09:59:11.164Z,200
2018-05-08T10:00:21.270Z,200
2018-05-08T10:01:31.412Z,200
2018-05-08T10:02:41.515Z,200
2018-05-08T10:03:51.609Z,200
2018-05-08T10:05:01.435Z,200
2018-05-08T10:06:11.279Z,200
2018-05-08T10:07:21.354Z,200
2018-05-08T10:08:31.174Z,205
2018-05-08T10:09:41.319Z,205
2018-05-08T10:10:51.180Z,205
2018-05-08T10:12:01.283Z,205
2018-05-08T10:13:11.392Z,205
2018-05-08T10:14:20.971Z,205
2018-05-08T10:15:30.810Z,205
2018-05-08T10:16:40.643Z,205
2018-05-08T10:17:50.735Z,205
2018-05-08T10:19:00.908Z,205
2018-05-08T10:20:10.990Z,205
2018-05-08T10:21:21.130Z,205
2018-05-08T10:22:31.233Z,205
2018-05-08T10:23:41.329Z,205
2018-05-08T10:24:51.602Z,205
2018-05-08T10:26:01.707Z,205
2018-05-08T10:27:12.197Z,205
2018-05-08T10:28:23.222Z,205
2018-05-08T10:29:33.049Z,215
2018-05-08T10:30:43.213Z,210
2018-05-08T10:31:53.378Z,215
2018-05-08T10:33:03.449Z,215
2018-05-08T10:34:12.988Z,220
2018-05-08T10:35:23.101Z,220
2018-05-08T10:36:32.934Z,225
2018-05-08T10:37:43.011Z,225
2018-05-08T10:38:53.078Z,225
2018-05-08T10:40:03.186Z,230
2018-05-08T10:41:13.012Z,230
2018-05-08T10:42:23.284Z,235
2018-05-08T10:43:33.360Z,245
2018-05-08T10:44:43.457Z,250
2018-05-08T10:45:53.537Z,255
2018-05-08T10:47:03.646Z,260
2018-05-08T10:48:13.525Z,260
2018-05-08T10:49:23.620Z,270
2018-05-08T10:50:33.450Z,270
2018-05-08T10:51:43.311Z,275
2018-05-08T10:52:53.144Z,270
2018-05-08T10:54:03.306Z,265
2018-05-08T10:55:13.397Z,270
2018-05-08T10:56:23.487Z,275
2018-05-08T10:57:33.325Z,280
2018-05-08T10:58:43.157Z,280
2018-05-08T10:59:52.976Z,280
2018-05-08T11:01:02.800Z,290
2018-05-08T11:02:12.884Z,280
2018-05-08T11:03:22.999Z,280
2018-05-08T11:04:33.088Z,285
2018-05-08T11:05:43.268Z,280
2018-05-08T11:06:53.362Z,280
2018-05-08T11:08:03.461Z,275
2018-05-08T11:09:13.908Z,275
2018-05-08T11:10:23.994Z,270
2018-05-08T11:11:34.078Z,275
2018-05-08T11:12:44.171Z,275
2018-05-08T11:13:54.271Z,275
2018-05-08T11:15:04.389Z,280
2018-05-08T11:16:14.217Z,285
2018-05-08T11:17:24.284Z,285
2018-05-08T11:18:34.375Z,280
2018-05-08T11:19:44.629Z,280
2018-05-08T11:20:54.742Z,270
2018-05-08T11:22:04.826Z,265
2018-05-08T11:23:14.714Z,255
2018-05-08T11:24:24.830Z,250
2018-05-08T11:25:34.913Z,245
2018-05-08T11:26:46.004Z,255
2018-05-08T11:27:55.865Z,255
2018-05-08T11:29:05.948Z,265
2018-05-08T11:30:16.073Z,270
2018-05-08T11:31:26.177Z,280
2018-05-08T11:32:36.002Z,290
2018-05-08T11:33:46.089Z,295
2018-05-08T11:34:56.235Z,300
2018-05-08T11:36:06.318Z,305
2018-05-08T11:37:16.442Z,305
2018-05-08T11:38:26.541Z,305
2018-05-08T11:39:36.610Z,300
2018-05-08T11:40:46.461Z,300
2018-05-08T11:41:56.548Z,295
2018-05-08T11:43:06.472Z,290
2018-05-08T11:44:16.559Z,290
2018-05-08T11:45:26.654Z,290
2018-05-08T11:46:36.532Z,255
2018-05-08T11:47:46.625Z,175
2018-05-08T11:48:56.178Z,260
2018-05-08T11:50:06.764Z,235
2018-05-08T11:51:16.352Z,315
2018-05-08T11:52:26.224Z,265
2018-05-08T11:53:36.045Z,310
2018-05-08T11:54:46.165Z,320
2018-05-08T11:55:55.999Z,330
2018-05-08T11:57:05.809Z,320
2018-05-08T11:58:15.962Z,305
2018-05-08T11:59:26.075Z,320
2018-05-08T12:00:36.176Z,330
2018-05-08T12:01:46.004Z,325
2018-05-08T12:02:56.079Z,320
2018-05-08T12:04:05.908Z,320
2018-05-08T12:05:16.014Z,305
2018-05-08T12:06:25.835Z,295
2018-05-08T12:07:35.964Z,290
2018-05-08T12:08:46.042Z,295
2018-05-08T12:09:56.197Z,290
2018-05-08T12:11:06.052Z,285
2018-05-08T12:12:16.146Z,295
2018-05-08T12:13:26.236Z,295
2018-05-08T12:14:36.688Z,205
2018-05-08T12:15:46.841Z,275
2018-05-08T12:16:56.667Z,160
2018-05-08T12:18:06.774Z,165
2018-05-08T12:19:16.880Z,215
2018-05-08T12:20:26.978Z,145
2018-05-08T12:21:36.845Z,245
2018-05-08T12:22:46.934Z,260
2018-05-08T12:23:57.043Z,255
2018-05-08T12:25:07.164Z,255
2018-05-08T12:26:17.245Z,255
2018-05-08T12:27:27.380Z,255
2018-05-08T12:28:37.486Z,255
2018-05-08T12:29:47.582Z,250
2018-05-08T12:30:57.667Z,250
2018-05-08T12:32:07.761Z,135
2018-05-08T12:33:17.647Z,135
2018-05-08T12:34:27.479Z,130
2018-05-08T12:35:37.589Z,140
2018-05-08T12:36:47.704Z,135
2018-05-08T12:37:57.799Z,130
2018-05-08T12:39:07.643Z,240
2018-05-08T12:40:17.541Z,240
2018-05-08T12:41:27.381Z,240
2018-05-08T12:42:37.482Z,245
2018-05-08T12:43:47.569Z,150
2018-05-08T12:44:57.664Z,145
2018-05-08T12:46:07.758Z,175
2018-05-08T12:47:17.857Z,250
2018-05-08T12:48:27.950Z,260
2018-05-08T12:49:38.094Z,270
2018-05-08T12:50:48.315Z,285
2018-05-08T12:51:58.176Z,295
2018-05-08T12:53:08.027Z,315
2018-05-08T12:54:18.134Z,320
2018-05-08T12:55:28.225Z,325
2018-05-08T12:56:38.333Z,315
2018-05-08T12:57:48.444Z,310
2018-05-08T12:58:58.415Z,305
2018-05-08T13:00:08.275Z,300
2018-05-08T13:01:18.417Z,300
2018-05-08T13:02:28.529Z,310
2018-05-08T13:03:38.662Z,315
2018-05-08T13:04:48.780Z,315
2018-05-08T13:05:58.904Z,280
2018-05-08T13:07:08.736Z,215
2018-05-08T13:08:18.566Z,260
2018-05-08T13:09:28.668Z,300
2018-05-08T13:10:38.781Z,245
2018-05-08T13:11:48.643Z,205
2018-05-08T13:12:58.757Z,205
2018-05-08T13:14:08.867Z,210
2018-05-08T13:15:19.026Z,215
2018-05-08T13:16:28.859Z,225
2018-05-08T13:17:38.948Z,225
2018-05-08T13:18:48.830Z,230
2018-05-08T13:19:58.907Z,230
2018-05-08T13:21:08.999Z,230
2018-05-08T13:22:19.099Z,230
2018-05-08T13:23:29.190Z,255
2018-05-08T13:24:39.105Z,340
2018-05-08T13:25:49.202Z,255
2018-05-08T13:26:58.836Z,245
2018-05-08T13:28:08.656Z,240
2018-05-08T13:29:18.742Z,240
2018-05-08T13:30:28.840Z,240
2018-05-08T13:31:38.950Z,235
2018-05-08T13:32:49.063Z,230
2018-05-08T13:33:59.438Z,195
2018-05-08T13:35:09.275Z,200
2018-05-08T13:36:19.396Z,190
2018-05-08T13:37:29.238Z,185
2018-05-08T13:38:39.352Z,190
2018-05-08T13:39:49.459Z,190
2018-05-08T13:40:59.289Z,185
2018-05-08T13:42:09.750Z,185
2018-05-08T13:43:19.856Z,185
2018-05-08T13:44:30.033Z,190
2018-05-08T13:45:40.132Z,190
2018-05-08T13:46:50.220Z,245
2018-05-08T13:48:00.359Z,210
2018-05-08T13:49:10.478Z,280
2018-05-08T13:50:20.623Z,285
2018-05-08T13:51:30.714Z,215
2018-05-08T13:52:40.789Z,285
2018-05-08T13:53:50.881Z,265
2018-05-08T13:55:01.215Z,290
2018-05-08T13:56:11.368Z,290
2018-05-08T13:57:21.451Z,300
2018-05-08T13:58:31.291Z,255
2018-05-08T13:59:40.868Z,235
2018-05-08T14:00:51.005Z,285
2018-05-08T14:02:01.173Z,300
2018-05-08T14:03:11.260Z,275
2018-05-08T14:04:21.372Z,305
2018-05-08T14:05:31.464Z,310
2018-05-08T14:06:42.203Z,305
2018-05-08T14:07:52.486Z,290
2018-05-08T14:09:02.326Z,275
2018-05-08T14:10:12.441Z,260
2018-05-08T14:11:22.299Z,220
2018-05-08T14:12:32.401Z,235
2018-05-08T14:13:42.484Z,220
2018-05-08T14:14:52.599Z,145
2018-05-08T14:16:02.711Z,135
2018-05-08T14:17:12.562Z,155
2018-05-08T14:18:22.409Z,170
2018-05-08T14:19:32.967Z,165
2018-05-08T14:20:42.820Z,150
2018-05-08T14:21:52.905Z,120
2018-05-08T14:23:03.021Z,115
2018-05-08T14:24:13.135Z,105
2018-05-08T14:25:23.334Z,105
2018-05-08T14:26:33.415Z,100
2018-05-08T14:27:43.526Z,95
2018-05-08T14:28:53.366Z,90
2018-05-08T14:30:03.450Z,90
2018-05-08T14:31:13.555Z,90
2018-05-08T14:32:23.669Z,95
2018-05-08T14:33:33.781Z,85
2018-05-08T14:34:43.921Z,80
2018-05-08T14:35:54.034Z,70
2018-05-08T14:37:04.135Z,70
2018-05-08T14:38:14.230Z,65
2018-05-08T14:39:23.795Z,65
2018-05-08T14:40:33.890Z,65
2018-05-08T14:41:43.733Z,65
2018-05-08T14:42:54.084Z,70
2018-05-08T14:44:04.255Z,70
2018-05-08T14:45:14.370Z,75
2018-05-08T14:46:24.475Z,75
2018-05-08T14:47:34.568Z,80
2018-05-08T14:48:44.725Z,80
2018-05-08T14:49:54.834Z,90
2018-05-08T14:51:04.947Z,95
2018-05-08T14:52:15.040Z,100
2018-05-08T14:53:24.905Z,105
2018-05-08T14:54:35.072Z,130
2018-05-08T14:55:45.157Z,140
2018-05-08T14:56:54.990Z,125
2018-05-08T14:58:05.087Z,125
2018-05-08T14:59:15.184Z,125
2018-05-08T15:00:25.330Z,125
2018-05-08T15:01:35.174Z,120
2018-05-08T15:02:45.277Z,120
2018-05-08T15:03:55.086Z,125
2018-05-08T15:05:04.909Z,130
2018-05-08T15:06:14.802Z,145
2018-05-08T15:07:24.640Z,140
2018-05-08T15:08:34.733Z,150
2018-05-08T15:09:44.576Z,155
2018-05-08T15:10:54.665Z,175
2018-05-08T15:12:04.816Z,180
2018-05-08T15:13:15.255Z,185
2018-05-08T15:14:25.115Z,155
2018-05-08T15:15:34.932Z,145
2018-05-08T15:16:45.034Z,140
2018-05-08T15:17:55.129Z,140
2018-05-08T15:19:05.233Z,140
2018-05-08T15:20:15.072Z,145
2018-05-08T15:21:24.929Z,195
2018-05-08T15:22:35.051Z,200
2018-05-08T15:23:45.292Z,205
2018-05-08T15:24:55.152Z,195
2018-05-08T15:26:05.281Z,215
2018-05-08T15:27:15.171Z,215
2018-05-08T15:28:25.258Z,220
2018-05-08T15:29:35.135Z,220
2018-05-08T15:30:45.001Z,225
2018-05-08T15:31:55.095Z,230
2018-05-08T15:33:05.205Z,230
2018-05-08T15:34:15.035Z,220
2018-05-08T15:35:25.204Z,215
2018-05-08T15:36:35.293Z,210
2018-05-08T15:37:45.457Z,205
2018-05-08T15:38:55.537Z,205
2018-05-08T15:40:05.639Z,210
2018-05-08T15:41:16.078Z,215
2018-05-08T15:42:26.174Z,220
2018-05-08T15:43:36.265Z,205
2018-05-08T15:44:46.377Z,195
2018-05-08T15:45:56.467Z,185
2018-05-08T15:47:06.653Z,170
2018-05-08T15:48:16.752Z,155
2018-05-08T15:49:26.834Z,145
2018-05-08T15:50:36.910Z,125
2018-05-08T15:51:47.009Z,115
2018-05-08T15:52:57.104Z,110
2018-05-08T15:54:07.204Z,110
2018-05-08T15:55:17.612Z,110
2018-05-08T15:56:27.806Z,105
2018-05-08T15:57:37.655Z,100
2018-05-08T15:58:47.756Z,90
2018-05-08T15:59:57.579Z,75
2018-05-08T16:01:07.407Z,65
2018-05-08T16:02:17.999Z,55
2018-05-08T16:03:28.222Z,45
2018-05-08T16:04:38.297Z,35
2018-05-08T16:05:48.421Z,35
2018-05-08T16:06:58.532Z,30
2018-05-08T16:08:08.653Z,25
2018-05-08T16:09:18.484Z,20
2018-05-08T16:10:28.645Z,20
2018-05-08T16:11:38.766Z,15
2018-05-08T16:12:48.858Z,15
2018-05-08T16:13:58.959Z,15
2018-05-08T16:15:09.153Z,15
2018-05-08T16:16:18.975Z,10
2018-05-08T16:17:28.823Z,10
2018-05-08T16:18:38.917Z,10
2018-05-08T16:19:49.020Z,10
2018-05-08T16:20:59.119Z,5
2018-05-08T16:22:09.204Z,5
2018-05-08T16:23:19.038Z,5
2018-05-08T16:24:29.134Z,5
2018-05-08T16:25:39.207Z,5
2018-05-08T16:26:49.314Z,5
2018-05-08T16:27:59.152Z,0
2018-05-08T16:29:08.446Z,0
2018-05-08T16:30:18.664Z,0
2018-05-08T16:31:28.863Z,0
2018-05-08T16:32:38.969Z,0
2018-05-08T16:33:49.256Z,0
2018-05-08T16:34:59.091Z,0
2018-05-08T16:36:09.193Z,0
2018-05-08T16:37:19.299Z,0
2018-05-08T16:38:29.409Z,0
2018-05-08T16:39:39.880Z,0
2018-05-08T16:40:49.983Z,0
2018-05-08T16:42:00.084Z,0
2018-05-08T16:43:10.186Z,0
2018-05-08T16:44:19.763Z,0
2018-05-08T16:45:29.873Z,0
2018-05-08T16:46:39.981Z,0
2018-05-08T16:47:50.086Z,0
2018-05-08T16:49:00.187Z,0
2018-05-08T16:50:10.263Z,0
2018-05-08T16:51:20.412Z,0
2018-05-08T16:52:30.490Z,0
2018-05-08T16:53:40.614Z,0